sensor_id;sensor_type;location;lat;lon;timestamp;P1;durP1;ratioP1;P2;durP2;ratioP2
68803;SDS011;55787;52.678;13.314;2023-11-21T00:01:03;10.80;;;3.70;;
68803;SDS011;55787;52.678;13.314;2023-11-21T00:03:31;12.85;;;4.40;;
68803;SDS011;55787;52.678;13.314;2023-11-21T00:05:58;11.83;;;3.70;;
68803;SDS011;55787;52.678;13.314;2023-11-21T00:08:25;11.95;;;3.78;;
68803;SDS011;55787;52.678;13.314;2023-11-21T00:10:51;10.68;;;3.70;;
68803;SDS011;55787;52.678;13.314;2023-11-21T00:13:18;11.82;;;3.30;;
68803;SDS011;55787;52.678;13.314;2023-11-21T00:15:44;10.57;;;3.47;;
68803;SDS011;55787;52.678;13.314;2023-11-21T00:18:11;12.27;;;3.60;;
68803;SDS011;55787;52.678;13.314;2023-11-21T00:20:38;11.93;;;4.03;;
68803;SDS011;55787;52.678;13.314;2023-11-21T00:23:04;12.52;;;3.63;;
68803;SDS011;55787;52.678;13.314;2023-11-21T00:25:31;12.05;;;4.20;;
68803;SDS011;55787;52.678;13.314;2023-11-21T00:27:58;11.63;;;3.90;;
68803;SDS011;55787;52.678;13.314;2023-11-21T00:30:25;12.13;;;3.77;;
68803;SDS011;55787;52.678;13.314;2023-11-21T00:32:52;12.30;;;4.50;;
68803;SDS011;55787;52.678;13.314;2023-11-21T00:35:19;13.07;;;4.55;;
68803;SDS011;55787;52.678;13.314;2023-11-21T00:37:45;13.90;;;4.53;;
68803;SDS011;55787;52.678;13.314;2023-11-21T00:40:12;14.05;;;4.40;;
68803;SDS011;55787;52.678;13.314;2023-11-21T00:42:41;12.57;;;4.80;;
68803;SDS011;55787;52.678;13.314;2023-11-21T00:45:08;13.70;;;4.53;;
68803;SDS011;55787;52.678;13.314;2023-11-21T00:47:35;13.80;;;4.90;;
68803;SDS011;55787;52.678;13.314;2023-11-21T00:50:01;16.55;;;5.10;;
68803;SDS011;55787;52.678;13.314;2023-11-21T00:52:28;15.38;;;4.93;;
68803;SDS011;55787;52.678;13.314;2023-11-21T00:54:55;15.17;;;5.47;;
68803;SDS011;55787;52.678;13.314;2023-11-21T00:57:21;17.52;;;5.72;;
68803;SDS011;55787;52.678;13.314;2023-11-21T00:59:48;15.57;;;5.25;;
68803;SDS011;55787;52.678;13.314;2023-11-21T01:02:15;15.60;;;4.82;;
68803;SDS011;55787;52.678;13.314;2023-11-21T01:04:42;15.98;;;5.50;;
68803;SDS011;55787;52.678;13.314;2023-11-21T01:07:10;16.03;;;5.20;;
68803;SDS011;55787;52.678;13.314;2023-11-21T01:09:36;15.82;;;5.15;;
68803;SDS011;55787;52.678;13.314;2023-11-21T01:12:03;13.23;;;4.80;;
68803;SDS011;55787;52.678;13.314;2023-11-21T01:14:30;14.27;;;4.63;;
68803;SDS011;55787;52.678;13.314;2023-11-21T01:16:56;14.73;;;4.95;;
68803;SDS011;55787;52.678;13.314;2023-11-21T01:19:23;13.57;;;4.93;;
68803;SDS011;55787;52.678;13.314;2023-11-21T01:21:50;14.18;;;4.90;;
68803;SDS011;55787;52.678;13.314;2023-11-21T01:24:18;15.18;;;4.90;;
68803;SDS011;55787;52.678;13.314;2023-11-21T01:26:44;13.23;;;4.38;;
68803;SDS011;55787;52.678;13.314;2023-11-21T01:29:13;13.55;;;4.53;;
68803;SDS011;55787;52.678;13.314;2023-11-21T01:31:39;13.53;;;4.47;;
68803;SDS011;55787;52.678;13.314;2023-11-21T01:34:06;12.63;;;4.43;;
68803;SDS011;55787;52.678;13.314;2023-11-21T01:36:33;15.30;;;4.95;;
68803;SDS011;55787;52.678;13.314;2023-11-21T01:38:59;14.93;;;4.53;;
68803;SDS011;55787;52.678;13.314;2023-11-21T01:41:27;13.25;;;4.75;;
68803;SDS011;55787;52.678;13.314;2023-11-21T01:43:55;14.67;;;4.83;;
68803;SDS011;55787;52.678;13.314;2023-11-21T01:46:22;16.48;;;5.15;;
68803;SDS011;55787;52.678;13.314;2023-11-21T01:48:50;14.40;;;4.95;;
68803;SDS011;55787;52.678;13.314;2023-11-21T01:51:19;16.45;;;5.00;;
68803;SDS011;55787;52.678;13.314;2023-11-21T01:53:46;14.98;;;5.20;;
68803;SDS011;55787;52.678;13.314;2023-11-21T01:56:13;14.60;;;5.00;;
68803;SDS011;55787;52.678;13.314;2023-11-21T01:58:40;12.73;;;4.63;;
68803;SDS011;55787;52.678;13.314;2023-11-21T02:01:08;13.77;;;4.70;;
68803;SDS011;55787;52.678;13.314;2023-11-21T02:03:36;13.05;;;4.90;;
68803;SDS011;55787;52.678;13.314;2023-11-21T02:06:03;15.35;;;5.07;;
68803;SDS011;55787;52.678;13.314;2023-11-21T02:08:30;18.87;;;5.27;;
68803;SDS011;55787;52.678;13.314;2023-11-21T02:10:56;13.20;;;4.97;;
68803;SDS011;55787;52.678;13.314;2023-11-21T02:13:24;13.02;;;4.40;;
68803;SDS011;55787;52.678;13.314;2023-11-21T02:15:50;14.48;;;4.72;;
68803;SDS011;55787;52.678;13.314;2023-11-21T02:18:18;15.27;;;5.05;;
68803;SDS011;55787;52.678;13.314;2023-11-21T02:20:45;14.77;;;4.90;;
68803;SDS011;55787;52.678;13.314;2023-11-21T02:23:13;14.00;;;4.75;;
68803;SDS011;55787;52.678;13.314;2023-11-21T02:25:41;15.48;;;4.95;;
68803;SDS011;55787;52.678;13.314;2023-11-21T02:28:09;14.02;;;4.75;;
68803;SDS011;55787;52.678;13.314;2023-11-21T02:30:39;16.13;;;5.28;;
68803;SDS011;55787;52.678;13.314;2023-11-21T02:33:05;14.43;;;4.77;;
68803;SDS011;55787;52.678;13.314;2023-11-21T02:35:33;14.77;;;5.13;;
68803;SDS011;55787;52.678;13.314;2023-11-21T02:38:01;13.60;;;4.85;;
68803;SDS011;55787;52.678;13.314;2023-11-21T02:40:28;14.95;;;5.28;;
68803;SDS011;55787;52.678;13.314;2023-11-21T02:42:56;15.32;;;4.63;;
68803;SDS011;55787;52.678;13.314;2023-11-21T02:45:25;16.80;;;5.00;;
68803;SDS011;55787;52.678;13.314;2023-11-21T02:47:52;14.77;;;5.38;;
68803;SDS011;55787;52.678;13.314;2023-11-21T02:50:23;16.98;;;5.15;;
68803;SDS011;55787;52.678;13.314;2023-11-21T02:52:50;14.70;;;4.63;;
68803;SDS011;55787;52.678;13.314;2023-11-21T02:55:17;15.60;;;5.32;;
68803;SDS011;55787;52.678;13.314;2023-11-21T02:57:44;16.53;;;5.13;;
68803;SDS011;55787;52.678;13.314;2023-11-21T03:00:11;15.57;;;5.25;;
68803;SDS011;55787;52.678;13.314;2023-11-21T03:02:40;15.50;;;5.05;;
68803;SDS011;55787;52.678;13.314;2023-11-21T03:05:07;15.82;;;5.20;;
68803;SDS011;55787;52.678;13.314;2023-11-21T03:07:37;15.35;;;4.97;;
68803;SDS011;55787;52.678;13.314;2023-11-21T03:10:04;19.23;;;5.63;;
68803;SDS011;55787;52.678;13.314;2023-11-21T03:12:32;18.42;;;5.35;;
68803;SDS011;55787;52.678;13.314;2023-11-21T03:14:59;15.63;;;4.97;;
68803;SDS011;55787;52.678;13.314;2023-11-21T03:17:25;16.85;;;5.30;;
68803;SDS011;55787;52.678;13.314;2023-11-21T03:19:52;17.13;;;5.90;;
68803;SDS011;55787;52.678;13.314;2023-11-21T03:22:19;15.93;;;5.40;;
68803;SDS011;55787;52.678;13.314;2023-11-21T03:24:46;16.88;;;5.30;;
68803;SDS011;55787;52.678;13.314;2023-11-21T03:27:12;14.38;;;4.95;;
68803;SDS011;55787;52.678;13.314;2023-11-21T03:29:39;16.50;;;5.18;;
68803;SDS011;55787;52.678;13.314;2023-11-21T03:32:06;15.77;;;5.22;;
68803;SDS011;55787;52.678;13.314;2023-11-21T03:34:33;15.40;;;5.03;;
68803;SDS011;55787;52.678;13.314;2023-11-21T03:37:00;15.95;;;5.60;;
68803;SDS011;55787;52.678;13.314;2023-11-21T03:39:26;16.98;;;5.60;;
68803;SDS011;55787;52.678;13.314;2023-11-21T03:41:53;14.40;;;4.65;;
68803;SDS011;55787;52.678;13.314;2023-11-21T03:44:20;14.00;;;5.13;;
68803;SDS011;55787;52.678;13.314;2023-11-21T03:46:46;15.17;;;5.17;;
68803;SDS011;55787;52.678;13.314;2023-11-21T03:49:13;16.65;;;5.45;;
68803;SDS011;55787;52.678;13.314;2023-11-21T03:51:40;15.10;;;4.82;;
68803;SDS011;55787;52.678;13.314;2023-11-21T03:54:06;16.30;;;5.18;;
68803;SDS011;55787;52.678;13.314;2023-11-21T03:56:33;16.55;;;5.53;;
68803;SDS011;55787;52.678;13.314;2023-11-21T03:59:00;15.43;;;5.43;;
68803;SDS011;55787;52.678;13.314;2023-11-21T04:01:26;15.68;;;4.93;;
68803;SDS011;55787;52.678;13.314;2023-11-21T04:03:53;15.05;;;4.90;;
68803;SDS011;55787;52.678;13.314;2023-11-21T04:06:19;14.20;;;4.88;;
68803;SDS011;55787;52.678;13.314;2023-11-21T04:08:46;16.55;;;5.30;;
68803;SDS011;55787;52.678;13.314;2023-11-21T04:11:13;16.77;;;5.00;;
68803;SDS011;55787;52.678;13.314;2023-11-21T04:13:40;17.60;;;5.65;;
68803;SDS011;55787;52.678;13.314;2023-11-21T04:16:07;17.05;;;5.57;;
68803;SDS011;55787;52.678;13.314;2023-11-21T04:18:37;18.02;;;5.22;;
68803;SDS011;55787;52.678;13.314;2023-11-21T04:21:05;15.50;;;5.13;;
68803;SDS011;55787;52.678;13.314;2023-11-21T04:23:32;15.70;;;4.93;;
68803;SDS011;55787;52.678;13.314;2023-11-21T04:26:00;17.67;;;5.30;;
68803;SDS011;55787;52.678;13.314;2023-11-21T04:28:28;15.10;;;4.20;;
68803;SDS011;55787;52.678;13.314;2023-11-21T04:30:55;15.80;;;4.97;;
68803;SDS011;55787;52.678;13.314;2023-11-21T04:33:21;16.55;;;5.00;;
68803;SDS011;55787;52.678;13.314;2023-11-21T04:35:48;16.70;;;5.00;;
68803;SDS011;55787;52.678;13.314;2023-11-21T04:38:15;15.75;;;4.90;;
68803;SDS011;55787;52.678;13.314;2023-11-21T04:40:41;13.80;;;4.47;;
68803;SDS011;55787;52.678;13.314;2023-11-21T04:43:08;14.38;;;4.47;;
68803;SDS011;55787;52.678;13.314;2023-11-21T04:45:35;16.83;;;4.85;;
68803;SDS011;55787;52.678;13.314;2023-11-21T04:48:01;13.70;;;4.60;;
68803;SDS011;55787;52.678;13.314;2023-11-21T04:50:28;15.23;;;4.53;;
68803;SDS011;55787;52.678;13.314;2023-11-21T04:52:55;14.32;;;4.40;;
68803;SDS011;55787;52.678;13.314;2023-11-21T04:55:22;13.98;;;4.10;;
68803;SDS011;55787;52.678;13.314;2023-11-21T04:57:48;15.45;;;4.93;;
68803;SDS011;55787;52.678;13.314;2023-11-21T05:00:15;15.47;;;4.70;;
68803;SDS011;55787;52.678;13.314;2023-11-21T05:02:42;14.50;;;4.50;;
68803;SDS011;55787;52.678;13.314;2023-11-21T05:05:10;15.40;;;4.15;;
68803;SDS011;55787;52.678;13.314;2023-11-21T05:07:39;14.45;;;4.07;;
68803;SDS011;55787;52.678;13.314;2023-11-21T05:10:07;15.00;;;4.60;;
68803;SDS011;55787;52.678;13.314;2023-11-21T05:12:36;13.57;;;4.00;;
68803;SDS011;55787;52.678;13.314;2023-11-21T05:15:04;13.10;;;3.65;;
68803;SDS011;55787;52.678;13.314;2023-11-21T05:17:38;15.07;;;4.55;;
68803;SDS011;55787;52.678;13.314;2023-11-21T05:20:09;14.63;;;4.68;;
68803;SDS011;55787;52.678;13.314;2023-11-21T05:22:37;15.43;;;4.50;;
68803;SDS011;55787;52.678;13.314;2023-11-21T05:25:04;15.07;;;4.27;;
68803;SDS011;55787;52.678;13.314;2023-11-21T05:27:33;13.10;;;4.72;;
68803;SDS011;55787;52.678;13.314;2023-11-21T05:30:04;15.27;;;4.60;;
68803;SDS011;55787;52.678;13.314;2023-11-21T05:32:32;13.30;;;4.03;;
68803;SDS011;55787;52.678;13.314;2023-11-21T05:35:00;15.73;;;4.40;;
68803;SDS011;55787;52.678;13.314;2023-11-21T05:37:27;14.53;;;4.63;;
68803;SDS011;55787;52.678;13.314;2023-11-21T05:39:54;12.55;;;3.83;;
68803;SDS011;55787;52.678;13.314;2023-11-21T05:42:23;13.90;;;4.15;;
68803;SDS011;55787;52.678;13.314;2023-11-21T05:44:50;13.55;;;4.15;;
68803;SDS011;55787;52.678;13.314;2023-11-21T05:47:16;13.05;;;4.00;;
68803;SDS011;55787;52.678;13.314;2023-11-21T05:49:44;14.97;;;4.23;;
68803;SDS011;55787;52.678;13.314;2023-11-21T05:52:12;12.90;;;3.63;;
68803;SDS011;55787;52.678;13.314;2023-11-21T05:54:39;13.45;;;3.90;;
68803;SDS011;55787;52.678;13.314;2023-11-21T05:57:05;11.45;;;3.63;;
68803;SDS011;55787;52.678;13.314;2023-11-21T05:59:32;12.32;;;3.50;;
68803;SDS011;55787;52.678;13.314;2023-11-21T06:01:58;11.00;;;3.30;;
68803;SDS011;55787;52.678;13.314;2023-11-21T06:04:25;10.77;;;2.80;;
68803;SDS011;55787;52.678;13.314;2023-11-21T06:06:52;9.85;;;3.03;;
68803;SDS011;55787;52.678;13.314;2023-11-21T06:09:19;11.25;;;2.92;;
68803;SDS011;55787;52.678;13.314;2023-11-21T06:11:46;10.13;;;3.15;;
68803;SDS011;55787;52.678;13.314;2023-11-21T06:14:13;9.93;;;2.87;;
68803;SDS011;55787;52.678;13.314;2023-11-21T06:16:41;10.68;;;3.00;;
68803;SDS011;55787;52.678;13.314;2023-11-21T06:19:08;10.52;;;2.85;;
68803;SDS011;55787;52.678;13.314;2023-11-21T06:21:34;10.93;;;2.85;;
68803;SDS011;55787;52.678;13.314;2023-11-21T06:24:01;10.48;;;2.90;;
68803;SDS011;55787;52.678;13.314;2023-11-21T06:26:28;13.43;;;3.03;;
68803;SDS011;55787;52.678;13.314;2023-11-21T06:28:54;9.50;;;2.72;;
68803;SDS011;55787;52.678;13.314;2023-11-21T06:31:22;9.23;;;2.30;;
68803;SDS011;55787;52.678;13.314;2023-11-21T06:33:49;8.65;;;2.50;;
68803;SDS011;55787;52.678;13.314;2023-11-21T06:36:18;9.70;;;2.95;;
68803;SDS011;55787;52.678;13.314;2023-11-21T06:38:44;9.97;;;2.50;;
68803;SDS011;55787;52.678;13.314;2023-11-21T06:41:12;9.63;;;2.25;;
68803;SDS011;55787;52.678;13.314;2023-11-21T06:43:41;9.10;;;2.15;;
68803;SDS011;55787;52.678;13.314;2023-11-21T06:46:12;9.40;;;2.33;;
68803;SDS011;55787;52.678;13.314;2023-11-21T06:48:42;7.45;;;1.58;;
68803;SDS011;55787;52.678;13.314;2023-11-21T06:51:09;8.53;;;1.90;;
68803;SDS011;55787;52.678;13.314;2023-11-21T06:53:36;8.55;;;1.98;;
68803;SDS011;55787;52.678;13.314;2023-11-21T06:56:04;8.07;;;2.00;;
68803;SDS011;55787;52.678;13.314;2023-11-21T06:58:41;9.38;;;2.30;;
68803;SDS011;55787;52.678;13.314;2023-11-21T07:01:08;8.15;;;1.92;;
68803;SDS011;55787;52.678;13.314;2023-11-21T07:03:35;8.73;;;2.10;;
68803;SDS011;55787;52.678;13.314;2023-11-21T07:06:04;8.02;;;2.10;;
68803;SDS011;55787;52.678;13.314;2023-11-21T07:08:30;8.77;;;1.85;;
68803;SDS011;55787;52.678;13.314;2023-11-21T07:10:57;8.55;;;1.88;;
68803;SDS011;55787;52.678;13.314;2023-11-21T07:13:24;8.40;;;2.28;;
68803;SDS011;55787;52.678;13.314;2023-11-21T07:15:50;8.50;;;2.13;;
68803;SDS011;55787;52.678;13.314;2023-11-21T07:18:18;10.13;;;2.45;;
68803;SDS011;55787;52.678;13.314;2023-11-21T07:20:45;8.25;;;1.88;;
68803;SDS011;55787;52.678;13.314;2023-11-21T07:23:11;8.70;;;2.10;;
68803;SDS011;55787;52.678;13.314;2023-11-21T07:25:38;8.80;;;2.53;;
68803;SDS011;55787;52.678;13.314;2023-11-21T07:28:05;7.67;;;1.97;;
68803;SDS011;55787;52.678;13.314;2023-11-21T07:30:31;9.55;;;2.83;;
68803;SDS011;55787;52.678;13.314;2023-11-21T07:32:58;9.43;;;2.63;;
68803;SDS011;55787;52.678;13.314;2023-11-21T07:35:25;10.52;;;2.70;;
68803;SDS011;55787;52.678;13.314;2023-11-21T07:37:52;11.48;;;2.30;;
68803;SDS011;55787;52.678;13.314;2023-11-21T07:40:19;9.60;;;2.33;;
68803;SDS011;55787;52.678;13.314;2023-11-21T07:42:46;9.48;;;2.42;;
68803;SDS011;55787;52.678;13.314;2023-11-21T07:45:12;9.13;;;2.17;;
68803;SDS011;55787;52.678;13.314;2023-11-21T07:47:39;9.15;;;2.38;;
68803;SDS011;55787;52.678;13.314;2023-11-21T07:50:07;9.23;;;2.13;;
68803;SDS011;55787;52.678;13.314;2023-11-21T07:52:34;8.60;;;1.90;;
68803;SDS011;55787;52.678;13.314;2023-11-21T07:55:01;11.63;;;3.25;;
68803;SDS011;55787;52.678;13.314;2023-11-21T07:57:27;16.95;;;5.68;;
68803;SDS011;55787;52.678;13.314;2023-11-21T07:59:54;18.13;;;6.38;;
68803;SDS011;55787;52.678;13.314;2023-11-21T08:02:21;21.60;;;6.40;;
68803;SDS011;55787;52.678;13.314;2023-11-21T08:04:48;11.10;;;2.90;;
68803;SDS011;55787;52.678;13.314;2023-11-21T08:07:17;12.38;;;3.85;;
68803;SDS011;55787;52.678;13.314;2023-11-21T08:09:44;9.88;;;2.55;;
68803;SDS011;55787;52.678;13.314;2023-11-21T08:12:10;9.90;;;3.13;;
68803;SDS011;55787;52.678;13.314;2023-11-21T08:14:37;9.55;;;2.70;;
68803;SDS011;55787;52.678;13.314;2023-11-21T08:17:05;9.63;;;2.47;;
68803;SDS011;55787;52.678;13.314;2023-11-21T08:19:33;9.57;;;2.70;;
68803;SDS011;55787;52.678;13.314;2023-11-21T08:21:59;9.98;;;2.28;;
68803;SDS011;55787;52.678;13.314;2023-11-21T08:24:26;7.47;;;1.90;;
68803;SDS011;55787;52.678;13.314;2023-11-21T08:26:53;14.02;;;3.65;;
68803;SDS011;55787;52.678;13.314;2023-11-21T08:29:20;11.17;;;3.40;;
68803;SDS011;55787;52.678;13.314;2023-11-21T08:31:47;14.13;;;4.82;;
68803;SDS011;55787;52.678;13.314;2023-11-21T08:34:14;9.15;;;2.78;;
68803;SDS011;55787;52.678;13.314;2023-11-21T08:36:42;8.50;;;2.22;;
68803;SDS011;55787;52.678;13.314;2023-11-21T08:39:09;8.27;;;2.15;;
68803;SDS011;55787;52.678;13.314;2023-11-21T08:41:39;9.23;;;2.17;;
68803;SDS011;55787;52.678;13.314;2023-11-21T08:44:06;8.65;;;2.33;;
68803;SDS011;55787;52.678;13.314;2023-11-21T08:46:35;8.50;;;2.08;;
68803;SDS011;55787;52.678;13.314;2023-11-21T08:49:03;8.40;;;2.17;;
68803;SDS011;55787;52.678;13.314;2023-11-21T08:51:30;7.97;;;2.13;;
68803;SDS011;55787;52.678;13.314;2023-11-21T08:53:56;8.07;;;1.97;;
68803;SDS011;55787;52.678;13.314;2023-11-21T08:56:26;7.57;;;1.70;;
68803;SDS011;55787;52.678;13.314;2023-11-21T08:58:53;8.60;;;1.63;;
68803;SDS011;55787;52.678;13.314;2023-11-21T09:01:20;7.60;;;1.77;;
68803;SDS011;55787;52.678;13.314;2023-11-21T09:03:47;7.43;;;1.52;;
68803;SDS011;55787;52.678;13.314;2023-11-21T09:06:14;8.23;;;2.30;;
68803;SDS011;55787;52.678;13.314;2023-11-21T09:08:40;9.48;;;2.13;;
68803;SDS011;55787;52.678;13.314;2023-11-21T09:11:08;9.07;;;2.17;;
68803;SDS011;55787;52.678;13.314;2023-11-21T09:13:35;8.10;;;1.70;;
68803;SDS011;55787;52.678;13.314;2023-11-21T09:16:02;7.65;;;1.73;;
68803;SDS011;55787;52.678;13.314;2023-11-21T09:18:29;7.47;;;1.70;;
68803;SDS011;55787;52.678;13.314;2023-11-21T09:20:57;9.02;;;1.92;;
68803;SDS011;55787;52.678;13.314;2023-11-21T09:23:24;8.75;;;1.60;;
68803;SDS011;55787;52.678;13.314;2023-11-21T09:25:51;8.02;;;1.92;;
68803;SDS011;55787;52.678;13.314;2023-11-21T09:28:18;9.25;;;1.70;;
68803;SDS011;55787;52.678;13.314;2023-11-21T09:30:44;7.07;;;1.70;;
68803;SDS011;55787;52.678;13.314;2023-11-21T09:33:11;8.38;;;1.60;;
68803;SDS011;55787;52.678;13.314;2023-11-21T09:35:38;8.35;;;1.67;;
68803;SDS011;55787;52.678;13.314;2023-11-21T09:38:05;10.63;;;2.30;;
68803;SDS011;55787;52.678;13.314;2023-11-21T09:40:38;8.50;;;2.28;;
68803;SDS011;55787;52.678;13.314;2023-11-21T09:43:15;8.33;;;2.20;;
68803;SDS011;55787;52.678;13.314;2023-11-21T09:45:47;8.85;;;2.30;;
68803;SDS011;55787;52.678;13.314;2023-11-21T09:48:20;9.52;;;2.65;;
68803;SDS011;55787;52.678;13.314;2023-11-21T09:50:48;7.75;;;2.13;;
68803;SDS011;55787;52.678;13.314;2023-11-21T09:53:21;9.93;;;2.40;;
68803;SDS011;55787;52.678;13.314;2023-11-21T09:55:51;9.17;;;2.20;;
68803;SDS011;55787;52.678;13.314;2023-11-21T09:58:19;9.85;;;2.45;;
68803;SDS011;55787;52.678;13.314;2023-11-21T10:00:48;10.02;;;2.25;;
68803;SDS011;55787;52.678;13.314;2023-11-21T10:03:15;10.85;;;2.40;;
68803;SDS011;55787;52.678;13.314;2023-11-21T10:05:43;8.55;;;2.00;;
68803;SDS011;55787;52.678;13.314;2023-11-21T10:08:12;8.57;;;2.17;;
68803;SDS011;55787;52.678;13.314;2023-11-21T10:10:43;7.63;;;1.92;;
68803;SDS011;55787;52.678;13.314;2023-11-21T10:13:16;9.75;;;2.20;;
68803;SDS011;55787;52.678;13.314;2023-11-21T10:15:52;9.10;;;1.98;;
68803;SDS011;55787;52.678;13.314;2023-11-21T10:18:20;9.15;;;2.33;;
68803;SDS011;55787;52.678;13.314;2023-11-21T10:20:48;8.63;;;2.20;;
68803;SDS011;55787;52.678;13.314;2023-11-21T10:23:20;9.80;;;2.75;;
68803;SDS011;55787;52.678;13.314;2023-11-21T10:25:50;8.25;;;2.22;;
68803;SDS011;55787;52.678;13.314;2023-11-21T10:28:23;9.02;;;2.30;;
68803;SDS011;55787;52.678;13.314;2023-11-21T10:30:50;11.07;;;2.90;;
68803;SDS011;55787;52.678;13.314;2023-11-21T10:33:17;10.07;;;2.60;;
68803;SDS011;55787;52.678;13.314;2023-11-21T10:35:53;10.55;;;2.53;;
68803;SDS011;55787;52.678;13.314;2023-11-21T10:38:21;13.70;;;3.20;;
68803;SDS011;55787;52.678;13.314;2023-11-21T10:40:50;10.57;;;2.80;;
68803;SDS011;55787;52.678;13.314;2023-11-21T10:43:18;9.30;;;2.67;;
68803;SDS011;55787;52.678;13.314;2023-11-21T10:45:45;10.77;;;2.73;;
68803;SDS011;55787;52.678;13.314;2023-11-21T10:48:15;11.85;;;2.65;;
68803;SDS011;55787;52.678;13.314;2023-11-21T10:50:45;11.00;;;2.55;;
68803;SDS011;55787;52.678;13.314;2023-11-21T10:53:13;10.90;;;2.65;;
68803;SDS011;55787;52.678;13.314;2023-11-21T10:55:40;10.73;;;2.88;;
68803;SDS011;55787;52.678;13.314;2023-11-21T10:58:07;12.37;;;3.00;;
68803;SDS011;55787;52.678;13.314;2023-11-21T11:00:37;10.05;;;2.90;;
68803;SDS011;55787;52.678;13.314;2023-11-21T11:03:06;11.77;;;3.17;;
68803;SDS011;55787;52.678;13.314;2023-11-21T11:05:41;12.63;;;3.05;;
68803;SDS011;55787;52.678;13.314;2023-11-21T11:08:19;12.18;;;2.30;;
68803;SDS011;55787;52.678;13.314;2023-11-21T11:10:52;12.17;;;2.73;;
68803;SDS011;55787;52.678;13.314;2023-11-21T11:13:19;10.10;;;2.80;;
68803;SDS011;55787;52.678;13.314;2023-11-21T11:15:47;10.63;;;2.78;;
68803;SDS011;55787;52.678;13.314;2023-11-21T11:18:15;11.15;;;2.60;;
68803;SDS011;55787;52.678;13.314;2023-11-21T11:20:42;12.45;;;3.20;;
68803;SDS011;55787;52.678;13.314;2023-11-21T11:28:55;13.23;;;3.03;;
68803;SDS011;55787;52.678;13.314;2023-11-21T11:31:39;13.35;;;4.00;;
68803;SDS011;55787;52.678;13.314;2023-11-21T11:36:51;14.00;;;3.90;;
68803;SDS011;55787;52.678;13.314;2023-11-21T11:39:27;12.73;;;3.00;;
68803;SDS011;55787;52.678;13.314;2023-11-21T11:42:02;12.80;;;4.10;;
68803;SDS011;55787;52.678;13.314;2023-11-21T11:47:29;12.82;;;2.80;;
68803;SDS011;55787;52.678;13.314;2023-11-21T11:50:08;12.10;;;2.93;;
68803;SDS011;55787;52.678;13.314;2023-11-21T11:52:44;10.25;;;2.75;;
68803;SDS011;55787;52.678;13.314;2023-11-21T11:55:13;12.35;;;2.78;;
68803;SDS011;55787;52.678;13.314;2023-11-21T11:57:42;12.23;;;2.90;;
68803;SDS011;55787;52.678;13.314;2023-11-21T12:00:16;10.50;;;2.67;;
68803;SDS011;55787;52.678;13.314;2023-11-21T12:02:48;11.97;;;2.83;;
68803;SDS011;55787;52.678;13.314;2023-11-21T12:05:16;9.43;;;2.33;;
68803;SDS011;55787;52.678;13.314;2023-11-21T12:07:51;13.18;;;3.50;;
68803;SDS011;55787;52.678;13.314;2023-11-21T12:10:24;15.18;;;4.22;;
68803;SDS011;55787;52.678;13.314;2023-11-21T12:12:52;15.88;;;4.07;;
68803;SDS011;55787;52.678;13.314;2023-11-21T12:15:45;14.93;;;4.43;;
68803;SDS011;55787;52.678;13.314;2023-11-21T12:18:12;12.65;;;3.40;;
68803;SDS011;55787;52.678;13.314;2023-11-21T12:20:38;9.23;;;2.67;;
68803;SDS011;55787;52.678;13.314;2023-11-21T12:23:07;11.90;;;3.33;;
68803;SDS011;55787;52.678;13.314;2023-11-21T12:25:36;11.52;;;3.17;;
68803;SDS011;55787;52.678;13.314;2023-11-21T12:28:03;12.73;;;3.40;;
68803;SDS011;55787;52.678;13.314;2023-11-21T12:30:30;10.88;;;3.28;;
68803;SDS011;55787;52.678;13.314;2023-11-21T12:33:01;11.02;;;3.20;;
68803;SDS011;55787;52.678;13.314;2023-11-21T12:35:30;11.75;;;3.55;;
68803;SDS011;55787;52.678;13.314;2023-11-21T12:38:00;12.02;;;3.38;;
68803;SDS011;55787;52.678;13.314;2023-11-21T12:40:36;11.93;;;3.43;;
68803;SDS011;55787;52.678;13.314;2023-11-21T12:43:02;11.23;;;3.58;;
68803;SDS011;55787;52.678;13.314;2023-11-21T12:45:31;12.00;;;3.75;;
68803;SDS011;55787;52.678;13.314;2023-11-21T12:48:04;11.50;;;3.58;;
68803;SDS011;55787;52.678;13.314;2023-11-21T12:50:38;14.20;;;4.63;;
68803;SDS011;55787;52.678;13.314;2023-11-21T12:53:06;16.30;;;4.70;;
68803;SDS011;55787;52.678;13.314;2023-11-21T12:55:43;18.05;;;5.43;;
68803;SDS011;55787;52.678;13.314;2023-11-21T12:58:16;16.63;;;5.68;;
68803;SDS011;55787;52.678;13.314;2023-11-21T13:00:46;19.77;;;5.55;;
68803;SDS011;55787;52.678;13.314;2023-11-21T13:03:15;20.20;;;6.03;;
68803;SDS011;55787;52.678;13.314;2023-11-21T13:05:46;22.70;;;6.43;;
68803;SDS011;55787;52.678;13.314;2023-11-21T13:08:18;21.90;;;7.00;;
68803;SDS011;55787;52.678;13.314;2023-11-21T13:10:52;24.40;;;7.00;;
68803;SDS011;55787;52.678;13.314;2023-11-21T13:13:22;25.10;;;7.20;;
68803;SDS011;55787;52.678;13.314;2023-11-21T13:15:52;20.00;;;6.38;;
68803;SDS011;55787;52.678;13.314;2023-11-21T13:18:31;19.43;;;6.97;;
68803;SDS011;55787;52.678;13.314;2023-11-21T13:21:01;16.85;;;5.72;;
68803;SDS011;55787;52.678;13.314;2023-11-21T13:23:34;17.23;;;5.35;;
68803;SDS011;55787;52.678;13.314;2023-11-21T13:26:02;17.08;;;5.88;;
68803;SDS011;55787;52.678;13.314;2023-11-21T13:28:33;18.33;;;6.25;;
68803;SDS011;55787;52.678;13.314;2023-11-21T13:31:01;19.67;;;6.20;;
68803;SDS011;55787;52.678;13.314;2023-11-21T13:33:48;22.20;;;6.85;;
68803;SDS011;55787;52.678;13.314;2023-11-21T13:36:23;20.50;;;6.20;;
68803;SDS011;55787;52.678;13.314;2023-11-21T13:38:50;22.70;;;6.57;;
68803;SDS011;55787;52.678;13.314;2023-11-21T13:41:20;24.92;;;7.65;;
68803;SDS011;55787;52.678;13.314;2023-11-21T13:43:54;25.87;;;8.33;;
68803;SDS011;55787;52.678;13.314;2023-11-21T13:46:30;27.83;;;8.10;;
68803;SDS011;55787;52.678;13.314;2023-11-21T13:49:03;27.48;;;8.73;;
68803;SDS011;55787;52.678;13.314;2023-11-21T13:51:31;29.33;;;9.20;;
68803;SDS011;55787;52.678;13.314;2023-11-21T13:54:06;29.35;;;9.77;;
68803;SDS011;55787;52.678;13.314;2023-11-21T13:56:36;34.00;;;9.70;;
68803;SDS011;55787;52.678;13.314;2023-11-21T13:59:05;32.63;;;10.80;;
68803;SDS011;55787;52.678;13.314;2023-11-21T14:01:49;33.45;;;10.18;;
68803;SDS011;55787;52.678;13.314;2023-11-21T14:04:24;31.02;;;10.05;;
68803;SDS011;55787;52.678;13.314;2023-11-21T14:07:08;34.55;;;11.10;;
68803;SDS011;55787;52.678;13.314;2023-11-21T14:09:49;31.53;;;9.57;;
68803;SDS011;55787;52.678;13.314;2023-11-21T14:12:16;28.35;;;8.82;;
68803;SDS011;55787;52.678;13.314;2023-11-21T14:14:42;24.92;;;8.80;;
68803;SDS011;55787;52.678;13.314;2023-11-21T14:17:10;22.92;;;7.32;;
68803;SDS011;55787;52.678;13.314;2023-11-21T14:19:37;23.92;;;7.90;;
68803;SDS011;55787;52.678;13.314;2023-11-21T14:22:07;21.57;;;7.53;;
68803;SDS011;55787;52.678;13.314;2023-11-21T14:24:36;22.83;;;7.38;;
68803;SDS011;55787;52.678;13.314;2023-11-21T14:27:03;21.65;;;7.03;;
68803;SDS011;55787;52.678;13.314;2023-11-21T14:29:30;20.45;;;6.93;;
68803;SDS011;55787;52.678;13.314;2023-11-21T14:31:57;18.48;;;6.50;;
68803;SDS011;55787;52.678;13.314;2023-11-21T14:34:24;16.43;;;6.17;;
68803;SDS011;55787;52.678;13.314;2023-11-21T14:36:52;19.77;;;6.18;;
68803;SDS011;55787;52.678;13.314;2023-11-21T14:39:19;19.08;;;6.82;;
68803;SDS011;55787;52.678;13.314;2023-11-21T14:41:54;17.52;;;6.63;;